Terminal Aerodrome Forecast
Issued by NWS Charleston, WV

Current Version | Previous Version | Graphics & Text | Print | Product List | Glossary On
Versions: 1 2 3 4 5 6 7 8 9 10 11 12 13 14 15 16 17 18 19 20 21 22
748
FTUS41 KRLX 031513 AAA
TAFEKN
TAF AMD
KEKN 031513Z 0315/0412 19011G23KT 4SM -SHRA BKN035 OVC100
     FM031700 20010G16KT P6SM OVC040
     FM040000 24009G15KT P6SM SCT070
     FM040900 27008KT P6SM BKN015=

USA.gov is the U.S. government's official web portal to all federal, state and local government web resources and services.